Brunswick, GA

11:22 AM EST on February 28, 2015 (GMT -0500)
Glynco Jetport | Change Station
CLOSE
Current Station
Airport
Location: Brunswick,
Elevation: 26 ft
Nearby Weather Stations
Active Advisory: Coastal Hazard Statement

Elev 26 ft 31.26 °N, 81.47 °W | Updated 7 minutes ago

Overcast
Overcast
46 °F
Feels Like 41 °F
N
13
Wind Variable Wind from NE
Gusts 21 mph

Today
High -- | Low -- °F
--% Chance of Precip.
Yesterday
High -- | Low -- °F
Precip. -- in
6:54 AM 6:23 PM
Waxing Gibbous, 78% visible
Pressure 30.52 in
Visibility 7.0 miles
Clouds Overcast 600 ft
Windchill 41 °F
Dew Point 43 °F
Humidity 87%
Rainfall 0.00 in
Snow Depth Not available.
UV 2 out of 12
Pollen 6.40 out of 12
Air Quality Not available.
Flu Activity Not available.
METAR KBQK 281615Z AUTO 04011G18KT 7SM OVC006 08/06 A3052 RMK AO1

More Conditions Fewer Conditions

Pressure 30.52 in
Visibility 7.0 miles
Clouds Overcast 600 ft
Windchill 41 °F
Dew Point 43 °F
Humidity 87%
Rainfall 0.00 in
Snow Depth Not available.
UV 2 out of 12
Pollen 6.40 out of 12
Air Quality Not available.
Flu Activity Not available.
METAR KBQK 281615Z AUTO 04011G18KT 7SM OVC006 08/06 A3052 RMK AO1

More Conditions Fewer Conditions

10-Day Weather Forecast

Almanac

Astronomy

Feb. 28, 2015 Rise Set
Actual Time
Civil Twilight
Nautical Twilight
Astronomical Twilight
Moon
Length of Visible Light
Length of Day
Tomorrow will be .
, % of the Moon is Illuminated

Today's Extremes

State Highs State Lows

Community

WunderPhotos

Upload Photos

1,801,075 photos uploaded!

WunderBlogs® & News

Nearby

Air Quality

  Air Quality AQ Index Pollutant
Not available.

Snow Depth

Station Depth Elevation

Earthquake Activity

City Distance Mag. Time & Date
Minimum magnitude displayed is 2.5.

Coastal Water Temperatures

Place Temperature

Nearby Weather Stations

Coastal Hazard Statement
Statement as of 2:51 AM EST on February 28, 2015

... High rip current risk in effect through late tonight...

The National Weather Service in Jacksonville has issued a high
rip current risk... which is in effect through late tonight.

* Timing... through late tonight.

* Impacts... hazardous rip currents will create dangerous
conditions.

Precautionary/preparedness actions...

There is a high risk of rip currents.

Rip currents will be life threatening... and swimming is not
advised.

Rip currents are powerful channels of water flowing quickly away
from shore... which occur most often at low spots or breaks in The
Sandbar and in the vicinity of structures such as groins...
jetties and piers. Heed the advice of lifeguards and the beach
patrol. Pay attention to flags and posted signs.

If you become caught in a rip current... do not panic. Remain calm
and begin to swim parallel to shore. Once you are away from the
force of the rip current... begin to swim back to the beach. Do
not attempt to swim directly against a rip current. Even a strong
swimmer can become exhausted quickly.



Nelson